Time;durP1;ratioP1;P1;durP2;ratioP2;P2;SDS_P1;SDS_P2;PMS_P1;PMS_P2;Temp;Humidity;BMP_temperature;BMP_pressure;BME280_temperature;BME280_humidity;BME280_pressure;Samples;Min_cycle;Max_cycle;Signal;HPM_P1;HPM_P2
2022/11/28 00:01:58;;;;;;;;;;;1.70;99.90;;;;;;5037112;28;19995;-73
2022/11/28 00:04:29;;;;;;;;;;;1.60;99.90;;;;;;5040351;28;19925;-75
2022/11/28 00:07:01;;;;;;;;;;;1.60;99.90;;;;;;5031716;28;19982;-73
2022/11/28 00:09:33;;;;;;;;;;;1.60;99.90;;;;;;5042933;28;19925;-74
2022/11/28 00:12:04;;;;;;;;;;;1.50;99.90;;;;;;5037213;28;20338;-74
2022/11/28 00:14:36;;;;;;;;;;;1.60;99.90;;;;;;5013691;28;19952;-73
2022/11/28 00:17:03;;;;;;;;;;;1.60;99.90;;;;;;5026330;28;19924;-74
2022/11/28 00:19:34;;;;;;;;;;;1.70;99.90;;;;;;5039119;28;19931;-75
2022/11/28 00:22:01;;;;;;;;;;;1.70;99.90;;;;;;5051424;28;19964;-75
2022/11/28 00:24:32;;;;;;;;;;;1.70;99.90;;;;;;5009343;28;19931;-75
2022/11/28 00:27:04;;;;;;;;;;;1.70;99.90;;;;;;5030735;28;19925;-72
2022/11/28 00:29:37;;;;;;;;;;;1.60;99.90;;;;;;5034217;28;20315;-73
2022/11/28 00:32:09;;;;;;;;;;;1.60;99.90;;;;;;5052063;28;19978;-74
2022/11/28 00:34:40;;;;;;;;;;;1.60;99.90;;;;;;5006561;28;19932;-74
2022/11/28 00:37:12;;;;;;;;;;;1.70;99.90;;;;;;5031854;28;19933;-74
2022/11/28 00:39:43;;;;;;;;;;;1.70;99.90;;;;;;5014684;28;19932;-75
2022/11/28 00:42:19;;;;;;;;;;;1.70;99.90;;;;;;5033031;28;19933;-73
2022/11/28 00:44:50;;;;;;;;;;;1.70;99.90;;;;;;5021080;28;19929;-75
2022/11/28 00:47:22;;;;;;;;;;;1.70;99.90;;;;;;5015007;28;20030;-74
2022/11/28 00:49:54;;;;;;;;;;;1.60;99.90;;;;;;5025262;28;20379;-74
2022/11/28 00:52:25;;;;;;;;;;;1.60;99.90;;;;;;5036122;28;19951;-74
2022/11/28 00:54:57;;;;;;;;;;;1.60;99.90;;;;;;5022505;28;19929;-75
2022/11/28 00:57:28;;;;;;;;;;;1.70;99.90;;;;;;5038293;28;19929;-75
2022/11/28 01:00:00;;;;;;;;;;;1.70;99.90;;;;;;5017917;28;19980;-73
2022/11/28 01:02:31;;;;;;;;;;;1.80;99.90;;;;;;5026445;28;19929;-75
2022/11/28 01:05:03;;;;;;;;;;;1.70;99.90;;;;;;4997291;28;19926;-74
2022/11/28 01:07:31;;;;;;;;;;;1.70;99.90;;;;;;5021118;28;19925;-73
2022/11/28 01:10:03;;;;;;;;;;;1.70;99.90;;;;;;4995714;28;19999;-74
2022/11/28 01:12:35;;;;;;;;;;;1.70;99.90;;;;;;5031022;28;19925;-74
2022/11/28 01:15:08;;;;;;;;;;;1.70;99.90;;;;;;5035952;28;19979;-73
2022/11/28 01:17:39;;;;;;;;;;;1.70;99.90;;;;;;5038032;28;19929;-75
2022/11/28 01:20:11;;;;;;;;;;;1.70;99.90;;;;;;5036966;28;19987;-73
2022/11/28 01:22:43;;;;;;;;;;;1.80;99.90;;;;;;4997225;28;19929;-74
2022/11/28 01:25:09;;;;;;;;;;;1.70;99.90;;;;;;5019787;28;19979;-75
2022/11/28 01:27:41;;;;;;;;;;;1.70;99.90;;;;;;5041095;28;19925;-75
2022/11/28 01:30:12;;;;;;;;;;;1.70;99.90;;;;;;4998709;28;20354;-73
2022/11/28 01:32:39;;;;;;;;;;;1.70;99.90;;;;;;5024059;28;20388;-74
2022/11/28 01:35:06;;;;;;;;;;;1.80;99.90;;;;;;5000821;28;19929;-75
2022/11/28 01:37:32;;;;;;;;;;;1.70;99.90;;;;;;5018977;28;20288;-72
2022/11/28 01:39:59;;;;;;;;;;;1.70;99.90;;;;;;5013160;28;19926;-75
2022/11/28 01:42:30;;;;;;;;;;;1.70;99.90;;;;;;5034843;28;19929;-75
2022/11/28 01:45:03;;;;;;;;;;;1.80;99.90;;;;;;5011100;28;20137;-74
2022/11/28 01:47:34;;;;;;;;;;;1.70;99.90;;;;;;5024704;28;19933;-74
2022/11/28 01:50:07;;;;;;;;;;;1.70;99.90;;;;;;5017582;28;19960;-75
2022/11/28 01:52:40;;;;;;;;;;;1.60;99.90;;;;;;5005327;28;19971;-73
2022/11/28 01:55:13;;;;;;;;;;;1.60;99.90;;;;;;5030564;28;19941;-73
2022/11/28 01:57:45;;;;;;;;;;;1.50;99.90;;;;;;5016927;28;19952;-75
2022/11/28 02:00:18;;;;;;;;;;;1.50;99.90;;;;;;5032111;28;19929;-72
2022/11/28 02:02:53;;;;;;;;;;;1.50;99.90;;;;;;5029211;28;19925;-73
2022/11/28 02:05:25;;;;;;;;;;;1.60;99.90;;;;;;5036475;28;19975;-75
2022/11/28 02:07:56;;;;;;;;;;;1.60;99.90;;;;;;5039557;28;19925;-74
2022/11/28 02:10:35;;;;;;;;;;;1.60;99.90;;;;;;5018447;28;19933;-73
2022/11/28 02:13:39;;;;;;;;;;;1.60;99.90;;;;;;5003491;28;19926;-73
2022/11/28 02:16:14;;;;;;;;;;;1.70;99.90;;;;;;4994141;28;19984;-73
2022/11/28 02:18:58;;;;;;;;;;;1.60;99.90;;;;;;5001988;28;19986;-75
2022/11/28 02:21:27;;;;;;;;;;;1.60;99.90;;;;;;5015033;28;19930;-73
2022/11/28 02:24:11;;;;;;;;;;;1.70;99.90;;;;;;5024697;28;19925;-74
2022/11/28 02:26:56;;;;;;;;;;;1.70;99.90;;;;;;5018232;28;19979;-73
2022/11/28 02:29:34;;;;;;;;;;;1.70;99.90;;;;;;4997725;28;19925;-74
2022/11/28 02:32:15;;;;;;;;;;;1.60;99.90;;;;;;5035256;28;19925;-75
2022/11/28 02:34:55;;;;;;;;;;;1.50;99.90;;;;;;5032292;28;19991;-74
2022/11/28 02:37:27;;;;;;;;;;;1.50;99.90;;;;;;5023019;28;20411;-74
2022/11/28 02:40:06;;;;;;;;;;;1.50;99.90;;;;;;5019807;28;19971;-74
2022/11/28 02:42:35;;;;;;;;;;;1.50;99.90;;;;;;5021786;28;20002;-74
2022/11/28 02:45:26;;;;;;;;;;;1.50;99.90;;;;;;5018479;28;19983;-74
2022/11/28 02:48:02;;;;;;;;;;;1.50;99.90;;;;;;5042212;28;19928;-74
2022/11/28 02:50:56;;;;;;;;;;;1.50;99.90;;;;;;5035191;28;19936;-74
2022/11/28 02:53:29;;;;;;;;;;;1.50;99.90;;;;;;5017712;28;20379;-74
2022/11/28 02:56:01;;;;;;;;;;;1.60;99.90;;;;;;5012394;28;19983;-74
2022/11/28 02:58:32;;;;;;;;;;;1.60;99.90;;;;;;5040914;28;19925;-74
2022/11/28 03:01:06;;;;;;;;;;;1.70;99.90;;;;;;5024351;28;20346;-74
2022/11/28 03:03:59;;;;;;;;;;;1.70;99.90;;;;;;5016296;28;20304;-73
2022/11/28 03:07:09;;;;;;;;;;;1.80;99.90;;;;;;5011654;28;19925;-74
2022/11/28 03:09:40;;;;;;;;;;;1.70;99.90;;;;;;4962218;28;19952;-73
2022/11/28 03:12:20;;;;;;;;;;;1.70;99.90;;;;;;4936119;28;20046;-75
2022/11/28 03:15:03;;;;;;;;;;;1.70;99.90;;;;;;5009550;28;20127;-73
2022/11/28 03:17:34;;;;;;;;;;;1.70;99.90;;;;;;5040147;28;19991;-72
2022/11/28 03:20:06;;;;;;;;;;;1.60;99.90;;;;;;5039851;28;19929;-73
2022/11/28 03:22:42;;;;;;;;;;;1.60;99.90;;;;;;5040659;28;19929;-74
2022/11/28 03:25:20;;;;;;;;;;;1.50;99.90;;;;;;5005968;28;19983;-74
2022/11/28 03:27:57;;;;;;;;;;;1.50;99.90;;;;;;5041293;28;19928;-74
2022/11/28 03:30:23;;;;;;;;;;;1.50;99.90;;;;;;5043357;28;20448;-74
2022/11/28 03:32:56;;;;;;;;;;;1.50;99.90;;;;;;5005654;28;19951;-75
2022/11/28 03:35:30;;;;;;;;;;;1.50;99.90;;;;;;5038933;28;19925;-74
2022/11/28 03:38:05;;;;;;;;;;;1.40;99.90;;;;;;5023048;28;20018;-74
2022/11/28 03:40:42;;;;;;;;;;;1.40;99.90;;;;;;5002047;28;19952;-74
2022/11/28 03:43:20;;;;;;;;;;;1.40;99.90;;;;;;5042484;28;19959;-74
2022/11/28 03:45:54;;;;;;;;;;;1.40;99.90;;;;;;5034730;28;19933;-73
2022/11/28 03:48:28;;;;;;;;;;;1.40;99.90;;;;;;5043602;28;19928;-71
2022/11/28 03:50:59;;;;;;;;;;;1.40;99.90;;;;;;5020826;28;19925;-72
2022/11/28 03:53:46;;;;;;;;;;;1.50;99.90;;;;;;5039219;28;19929;-72
2022/11/28 03:56:33;;;;;;;;;;;1.50;99.90;;;;;;5026362;28;19929;-73
2022/11/28 03:59:25;;;;;;;;;;;1.50;99.90;;;;;;5029359;28;20425;-73
2022/11/28 04:02:02;;;;;;;;;;;1.50;99.90;;;;;;5048428;28;19925;-73
2022/11/28 04:04:38;;;;;;;;;;;1.60;99.90;;;;;;5017767;28;19929;-75
2022/11/28 04:07:19;;;;;;;;;;;1.60;99.90;;;;;;5025972;28;20285;-74
2022/11/28 04:09:52;;;;;;;;;;;1.60;99.90;;;;;;5020111;28;19929;-74
2022/11/28 04:12:29;;;;;;;;;;;1.60;99.90;;;;;;5004445;28;19930;-75
2022/11/28 04:15:05;;;;;;;;;;;1.60;99.90;;;;;;5015982;28;20284;-72
2022/11/28 04:17:39;;;;;;;;;;;1.60;99.90;;;;;;5044530;28;20371;-74
2022/11/28 04:20:14;;;;;;;;;;;1.60;99.90;;;;;;5049455;28;19955;-74
2022/11/28 04:22:52;;;;;;;;;;;1.60;99.90;;;;;;5033958;28;19990;-73
2022/11/28 04:25:21;;;;;;;;;;;1.60;99.90;;;;;;4979615;28;19925;-73
2022/11/28 04:27:55;;;;;;;;;;;1.60;99.90;;;;;;5021662;28;20379;-74
2022/11/28 04:30:26;;;;;;;;;;;1.60;99.90;;;;;;5039748;28;19979;-73
2022/11/28 04:33:00;;;;;;;;;;;1.60;99.90;;;;;;5031165;28;19925;-72
2022/11/28 04:35:34;;;;;;;;;;;1.70;99.90;;;;;;5020546;28;19925;-73
2022/11/28 04:38:07;;;;;;;;;;;1.70;99.90;;;;;;5043238;28;19929;-73
2022/11/28 04:40:57;;;;;;;;;;;1.70;99.90;;;;;;5010548;28;20342;-81
2022/11/28 04:43:31;;;;;;;;;;;1.70;99.90;;;;;;5009516;28;19931;-73
2022/11/28 04:46:14;;;;;;;;;;;1.70;99.90;;;;;;5036837;28;19929;-74
2022/11/28 04:48:45;;;;;;;;;;;1.70;99.90;;;;;;5012452;28;19929;-72
2022/11/28 04:51:44;;;;;;;;;;;1.80;99.90;;;;;;5039352;28;19925;-73
2022/11/28 04:54:23;;;;;;;;;;;1.80;99.90;;;;;;5021052;28;19925;-73
2022/11/28 04:57:19;;;;;;;;;;;1.80;99.90;;;;;;5030148;28;19972;-73
2022/11/28 04:59:51;;;;;;;;;;;1.80;99.90;;;;;;5008146;28;20426;-74
2022/11/28 05:02:23;;;;;;;;;;;1.80;99.90;;;;;;5029103;28;19982;-74
2022/11/28 05:04:55;;;;;;;;;;;1.70;99.90;;;;;;5022236;28;20348;-73
2022/11/28 05:07:26;;;;;;;;;;;1.80;99.90;;;;;;5012747;28;19932;-74
2022/11/28 05:09:58;;;;;;;;;;;1.70;99.90;;;;;;5038637;28;19933;-73
2022/11/28 05:12:25;;;;;;;;;;;1.70;99.90;;;;;;5014765;28;19960;-74
2022/11/28 05:14:51;;;;;;;;;;;1.70;99.90;;;;;;5035693;28;20403;-74
2022/11/28 05:17:23;;;;;;;;;;;1.70;99.90;;;;;;5013249;28;21807;-73
2022/11/28 05:19:54;;;;;;;;;;;1.80;99.90;;;;;;5042135;28;19925;-74
2022/11/28 05:22:26;;;;;;;;;;;1.80;99.90;;;;;;5036643;28;19936;-74
2022/11/28 05:24:58;;;;;;;;;;;1.80;99.90;;;;;;5027142;28;19933;-73
2022/11/28 05:27:29;;;;;;;;;;;1.80;99.90;;;;;;5033697;28;20387;-74
2022/11/28 05:30:01;;;;;;;;;;;1.80;99.90;;;;;;5031902;28;19926;-74
2022/11/28 05:32:35;;;;;;;;;;;1.70;99.90;;;;;;5043071;28;19951;-73
2022/11/28 05:35:02;;;;;;;;;;;1.70;99.90;;;;;;5002917;28;19929;-73
2022/11/28 05:37:28;;;;;;;;;;;1.70;99.90;;;;;;5016651;28;19926;-72
2022/11/28 05:39:55;;;;;;;;;;;1.70;99.90;;;;;;5025629;28;19925;-75
2022/11/28 05:42:21;;;;;;;;;;;1.70;99.90;;;;;;5014872;28;19925;-72
2022/11/28 05:44:53;;;;;;;;;;;1.70;99.90;;;;;;5039607;28;19955;-74
2022/11/28 05:47:25;;;;;;;;;;;1.70;99.90;;;;;;5032529;28;19948;-73
2022/11/28 05:49:56;;;;;;;;;;;1.80;99.90;;;;;;5041626;28;19988;-75
2022/11/28 05:52:23;;;;;;;;;;;1.80;99.90;;;;;;5026040;28;20031;-73
2022/11/28 05:54:55;;;;;;;;;;;1.80;99.90;;;;;;5013008;28;19933;-74
2022/11/28 05:57:28;;;;;;;;;;;1.80;99.90;;;;;;5029879;28;19925;-73
2022/11/28 05:59:56;;;;;;;;;;;1.80;99.90;;;;;;5012435;28;19929;-73
2022/11/28 06:02:37;;;;;;;;;;;1.80;99.90;;;;;;5019069;28;19936;-73
2022/11/28 06:05:08;;;;;;;;;;;1.70;99.90;;;;;;5027466;28;19925;-74
2022/11/28 06:07:40;;;;;;;;;;;1.70;99.90;;;;;;5026725;28;19952;-74
2022/11/28 06:10:11;;;;;;;;;;;1.70;99.90;;;;;;5042029;28;20287;-72
2022/11/28 06:12:43;;;;;;;;;;;1.70;99.90;;;;;;5036347;28;19929;-74
2022/11/28 06:15:09;;;;;;;;;;;1.70;99.90;;;;;;5028788;28;19925;-73
2022/11/28 06:17:36;;;;;;;;;;;1.70;99.90;;;;;;4994474;28;19929;-74
2022/11/28 06:20:08;;;;;;;;;;;1.70;99.90;;;;;;5021502;28;19952;-73
2022/11/28 06:22:39;;;;;;;;;;;1.70;99.90;;;;;;5038334;28;19983;-74
2022/11/28 06:25:06;;;;;;;;;;;1.70;99.90;;;;;;5031178;28;19944;-74
2022/11/28 06:27:37;;;;;;;;;;;1.70;99.90;;;;;;5037217;28;19929;-74
2022/11/28 06:30:05;;;;;;;;;;;1.70;99.90;;;;;;5000557;28;19925;-73
2022/11/28 06:32:36;;;;;;;;;;;1.70;99.90;;;;;;5040125;28;19952;-73
2022/11/28 06:35:08;;;;;;;;;;;1.70;99.90;;;;;;5018245;28;19948;-76
2022/11/28 06:37:35;;;;;;;;;;;1.70;99.90;;;;;;5020056;28;19925;-73
2022/11/28 06:40:06;;;;;;;;;;;1.70;99.90;;;;;;5034881;28;19925;-73
2022/11/28 06:42:38;;;;;;;;;;;1.70;99.90;;;;;;5038209;28;19932;-74
2022/11/28 06:45:05;;;;;;;;;;;1.70;99.90;;;;;;5036457;28;20011;-73
2022/11/28 06:47:36;;;;;;;;;;;1.70;99.90;;;;;;5027497;28;19974;-74
2022/11/28 06:50:09;;;;;;;;;;;1.70;99.90;;;;;;5026041;28;19933;-74
2022/11/28 06:52:35;;;;;;;;;;;1.70;99.90;;;;;;5034872;28;19933;-74
2022/11/28 06:55:07;;;;;;;;;;;1.80;99.90;;;;;;4994640;28;19925;-74
2022/11/28 06:57:39;;;;;;;;;;;1.90;99.90;;;;;;5028587;28;19926;-73
2022/11/28 07:00:10;;;;;;;;;;;1.80;99.90;;;;;;5040928;28;19929;-78
2022/11/28 07:02:42;;;;;;;;;;;1.80;99.90;;;;;;5024424;28;19925;-75
2022/11/28 07:05:09;;;;;;;;;;;1.80;99.90;;;;;;5020369;28;19972;-73
2022/11/28 07:07:40;;;;;;;;;;;1.80;99.90;;;;;;5022169;28;19975;-75
2022/11/28 07:10:12;;;;;;;;;;;1.80;99.90;;;;;;5001743;28;19925;-73
2022/11/28 07:12:44;;;;;;;;;;;1.90;99.90;;;;;;5013386;28;20300;-73
2022/11/28 07:15:15;;;;;;;;;;;1.90;99.90;;;;;;5021274;28;19925;-73
2022/11/28 07:17:47;;;;;;;;;;;1.90;99.90;;;;;;5021568;28;20303;-74
2022/11/28 07:20:19;;;;;;;;;;;1.90;99.90;;;;;;5036173;28;19947;-74
2022/11/28 07:22:51;;;;;;;;;;;1.90;99.90;;;;;;5021185;28;19986;-73
2022/11/28 07:25:22;;;;;;;;;;;2.00;99.90;;;;;;4990223;28;19929;-73
2022/11/28 07:27:54;;;;;;;;;;;2.00;99.90;;;;;;5034308;28;19936;-73
2022/11/28 07:30:25;;;;;;;;;;;2.00;99.90;;;;;;5013279;28;19925;-74
2022/11/28 07:32:57;;;;;;;;;;;2.00;99.90;;;;;;5036905;28;19932;-73
2022/11/28 07:35:28;;;;;;;;;;;2.00;99.90;;;;;;5036275;28;20371;-72
2022/11/28 07:38:00;;;;;;;;;;;2.00;99.90;;;;;;5010110;28;19956;-73
2022/11/28 07:40:32;;;;;;;;;;;2.10;99.90;;;;;;5017934;28;19925;-75
2022/11/28 07:43:03;;;;;;;;;;;2.10;99.90;;;;;;5033939;28;19929;-73
2022/11/28 07:45:37;;;;;;;;;;;2.10;99.90;;;;;;5015783;28;20454;-72
2022/11/28 07:48:05;;;;;;;;;;;2.10;99.90;;;;;;5033236;28;20383;-74
2022/11/28 07:50:31;;;;;;;;;;;2.10;99.90;;;;;;5021106;28;19929;-73
2022/11/28 07:52:58;;;;;;;;;;;2.20;99.90;;;;;;5031533;28;19925;-73
2022/11/28 07:55:29;;;;;;;;;;;2.10;99.90;;;;;;5038412;28;19936;-75
2022/11/28 07:58:01;;;;;;;;;;;2.10;99.90;;;;;;5032103;28;19929;-74
2022/11/28 08:00:28;;;;;;;;;;;2.10;99.90;;;;;;5017105;28;20534;-73
2022/11/28 08:03:00;;;;;;;;;;;2.20;99.90;;;;;;5023557;28;19925;-75
2022/11/28 08:05:32;;;;;;;;;;;2.20;99.90;;;;;;5015299;28;19929;-73
2022/11/28 08:07:58;;;;;;;;;;;2.20;99.90;;;;;;5031076;28;20411;-73
2022/11/28 08:10:30;;;;;;;;;;;2.30;99.90;;;;;;5044855;28;19967;-74
2022/11/28 08:13:02;;;;;;;;;;;2.30;99.90;;;;;;5024236;28;19929;-73
2022/11/28 08:15:35;;;;;;;;;;;2.30;99.90;;;;;;5033731;28;19971;-75
2022/11/28 08:18:06;;;;;;;;;;;2.40;99.90;;;;;;5000864;28;20396;-73
2022/11/28 08:20:33;;;;;;;;;;;2.30;99.90;;;;;;5034361;28;20326;-74
2022/11/28 08:23:05;;;;;;;;;;;2.40;99.90;;;;;;5014076;28;19939;-74
2022/11/28 08:25:36;;;;;;;;;;;2.30;99.90;;;;;;5031186;28;19929;-73
2022/11/28 08:28:03;;;;;;;;;;;2.30;99.90;;;;;;5043553;28;19925;-74
2022/11/28 08:30:30;;;;;;;;;;;2.40;99.90;;;;;;5034803;28;19928;-73
2022/11/28 08:33:01;;;;;;;;;;;2.40;99.90;;;;;;5028901;28;19929;-75
2022/11/28 08:35:33;;;;;;;;;;;2.40;99.90;;;;;;5027859;28;19926;-74
2022/11/28 08:38:00;;;;;;;;;;;2.40;99.90;;;;;;5018231;28;19928;-75
2022/11/28 08:40:31;;;;;;;;;;;2.40;99.90;;;;;;4998184;28;19976;-75
2022/11/28 08:43:03;;;;;;;;;;;2.50;99.90;;;;;;5034895;28;20403;-74
2022/11/28 08:45:38;;;;;;;;;;;2.50;99.90;;;;;;5034746;28;19936;-74
2022/11/28 08:48:09;;;;;;;;;;;2.50;99.90;;;;;;5031767;28;19978;-73
2022/11/28 08:50:36;;;;;;;;;;;2.50;99.90;;;;;;5029227;28;19951;-75
2022/11/28 08:53:07;;;;;;;;;;;2.50;99.90;;;;;;5030015;28;19925;-75
2022/11/28 08:55:34;;;;;;;;;;;2.60;99.90;;;;;;5024570;28;19982;-73
2022/11/28 08:58:06;;;;;;;;;;;2.70;99.90;;;;;;5020740;28;19925;-74
2022/11/28 09:00:37;;;;;;;;;;;2.70;99.90;;;;;;5035680;28;20375;-75
2022/11/28 09:03:12;;;;;;;;;;;2.70;99.90;;;;;;5030394;28;19978;-73
2022/11/28 09:05:45;;;;;;;;;;;2.70;99.90;;;;;;5004512;28;19972;-74
2022/11/28 09:08:17;;;;;;;;;;;2.60;99.90;;;;;;5028426;28;19925;-74
2022/11/28 09:10:49;;;;;;;;;;;2.60;99.90;;;;;;5018613;28;19925;-73
2022/11/28 09:13:20;;;;;;;;;;;2.60;99.90;;;;;;5044759;28;19924;-75
2022/11/28 09:15:52;;;;;;;;;;;2.60;99.90;;;;;;5038740;28;19932;-74
2022/11/28 09:18:19;;;;;;;;;;;2.70;99.90;;;;;;5026429;28;19929;-73
2022/11/28 09:20:55;;;;;;;;;;;2.80;99.90;;;;;;5025988;28;19936;-75
2022/11/28 09:23:22;;;;;;;;;;;2.80;99.90;;;;;;5018908;28;19932;-74
2022/11/28 09:25:54;;;;;;;;;;;2.90;99.90;;;;;;5027973;28;19941;-75
2022/11/28 09:28:20;;;;;;;;;;;2.90;99.90;;;;;;5023249;28;19947;-74
2022/11/28 09:30:58;;;;;;;;;;;2.90;99.90;;;;;;5020019;28;19960;-73
2022/11/28 09:33:29;;;;;;;;;;;2.90;99.90;;;;;;5021513;28;20655;-74
2022/11/28 09:36:09;;;;;;;;;;;2.90;99.90;;;;;;5023685;28;19932;-73
2022/11/28 09:38:41;;;;;;;;;;;3.00;99.90;;;;;;5018193;28;20334;-74
2022/11/28 09:41:20;;;;;;;;;;;3.10;99.90;;;;;;5032229;28;21417;-74
2022/11/28 09:43:47;;;;;;;;;;;3.10;99.90;;;;;;4986205;28;19975;-73
2022/11/28 09:46:20;;;;;;;;;;;3.10;99.90;;;;;;5017167;28;19979;-75
2022/11/28 09:48:54;;;;;;;;;;;3.20;99.90;;;;;;5001488;28;19929;-75
2022/11/28 09:51:41;;;;;;;;;;;3.20;99.90;;;;;;5034124;28;20440;-72
2022/11/28 09:54:12;;;;;;;;;;;3.20;99.90;;;;;;5019318;28;19925;-75
2022/11/28 09:56:39;;;;;;;;;;;3.30;99.90;;;;;;5042010;28;19932;-75
2022/11/28 09:59:24;;;;;;;;;;;3.30;99.90;;;;;;5016143;28;19932;-72
2022/11/28 10:02:22;;;;;;;;;;;3.40;99.90;;;;;;5026651;28;19928;-75
2022/11/28 10:05:20;;;;;;;;;;;3.50;99.90;;;;;;5006383;28;19924;-74
2022/11/28 10:08:12;;;;;;;;;;;3.50;99.90;;;;;;5006510;28;19944;-75
2022/11/28 10:10:50;;;;;;;;;;;3.60;99.90;;;;;;5030382;28;19948;-75
2022/11/28 10:14:00;;;;;;;;;;;3.60;99.90;;;;;;5032210;28;19925;-75
2022/11/28 10:16:32;;;;;;;;;;;3.60;99.90;;;;;;4965862;28;19950;-74
2022/11/28 10:19:07;;;;;;;;;;;3.70;99.90;;;;;;4934376;29;19977;-74
2022/11/28 10:21:46;;;;;;;;;;;3.70;99.90;;;;;;4980278;28;20406;-73
2022/11/28 10:24:29;;;;;;;;;;;3.70;99.90;;;;;;5045756;28;19928;-73
2022/11/28 10:26:57;;;;;;;;;;;3.80;99.90;;;;;;5012908;28;19930;-73
2022/11/28 10:29:48;;;;;;;;;;;3.80;99.90;;;;;;5039088;28;19925;-74
2022/11/28 10:32:19;;;;;;;;;;;3.80;99.90;;;;;;5013124;28;19983;-73
2022/11/28 10:34:51;;;;;;;;;;;3.90;99.90;;;;;;5031463;28;19933;-73
2022/11/28 10:37:24;;;;;;;;;;;3.90;99.90;;;;;;5023416;28;20354;-74
2022/11/28 10:40:01;;;;;;;;;;;3.90;99.90;;;;;;5004910;28;19926;-73
2022/11/28 10:42:46;;;;;;;;;;;3.90;99.90;;;;;;5016478;28;19924;-73
2022/11/28 10:45:36;;;;;;;;;;;4.00;99.90;;;;;;5007239;28;19995;-73
2022/11/28 10:48:22;;;;;;;;;;;4.00;99.90;;;;;;5011126;28;20562;-73
2022/11/28 10:50:57;;;;;;;;;;;4.10;99.90;;;;;;5032669;28;19978;-74
2022/11/28 10:53:31;;;;;;;;;;;4.10;99.90;;;;;;5017200;28;19925;-75
2022/11/28 10:56:07;;;;;;;;;;;4.20;99.90;;;;;;4996951;28;19924;-76
2022/11/28 10:58:57;;;;;;;;;;;4.20;99.90;;;;;;5034921;28;19929;-73
2022/11/28 11:01:27;;;;;;;;;;;4.30;99.90;;;;;;5000230;28;19925;-73
2022/11/28 11:03:53;;;;;;;;;;;4.30;99.90;;;;;;5011221;28;19936;-72
2022/11/28 11:06:25;;;;;;;;;;;4.40;99.90;;;;;;5024146;28;19925;-73
2022/11/28 11:08:56;;;;;;;;;;;4.40;99.90;;;;;;5027924;28;19971;-73
2022/11/28 11:11:31;;;;;;;;;;;4.40;99.90;;;;;;5012676;28;19925;-73
2022/11/28 11:13:59;;;;;;;;;;;4.50;99.90;;;;;;5017256;28;19931;-74
2022/11/28 11:16:48;;;;;;;;;;;4.50;99.90;;;;;;5015605;28;19925;-72
2022/11/28 11:19:33;;;;;;;;;;;4.40;99.90;;;;;;5030460;28;19929;-74
2022/11/28 11:22:20;;;;;;;;;;;4.50;99.90;;;;;;5018752;28;19933;-75
2022/11/28 11:25:03;;;;;;;;;;;4.50;99.90;;;;;;5024469;28;19925;-74
2022/11/28 11:27:36;;;;;;;;;;;4.50;99.90;;;;;;5043882;28;19933;-73
2022/11/28 11:30:24;;;;;;;;;;;4.60;99.90;;;;;;5002221;28;19929;-73
2022/11/28 11:32:50;;;;;;;;;;;4.60;99.90;;;;;;4993116;28;20341;-73
2022/11/28 11:35:23;;;;;;;;;;;4.60;99.90;;;;;;5039351;28;20346;-72
2022/11/28 11:38:15;;;;;;;;;;;4.60;99.90;;;;;;5032789;28;19935;-75
2022/11/28 11:40:42;;;;;;;;;;;4.60;99.90;;;;;;5030085;28;19925;-73
2022/11/28 11:43:27;;;;;;;;;;;4.70;99.90;;;;;;5033938;28;19987;-72
2022/11/28 11:46:06;;;;;;;;;;;4.70;99.90;;;;;;5017500;28;19956;-73
2022/11/28 11:48:40;;;;;;;;;;;4.70;99.90;;;;;;5022124;28;20466;-73
2022/11/28 11:51:20;;;;;;;;;;;4.70;99.90;;;;;;5028293;28;19925;-72
2022/11/28 11:53:47;;;;;;;;;;;4.70;99.90;;;;;;5034704;28;19925;-73
2022/11/28 11:56:19;;;;;;;;;;;4.80;99.90;;;;;;5039294;28;19979;-74
2022/11/28 11:58:52;;;;;;;;;;;4.80;99.90;;;;;;5014751;28;19929;-73
2022/11/28 12:01:25;;;;;;;;;;;4.80;99.90;;;;;;5039213;28;19925;-75
2022/11/28 12:04:05;;;;;;;;;;;4.90;99.90;;;;;;5019630;28;19979;-74
2022/11/28 12:06:38;;;;;;;;;;;4.90;99.90;;;;;;5028996;28;19979;-73
2022/11/28 12:09:19;;;;;;;;;;;4.90;99.90;;;;;;5042575;28;19994;-73
2022/11/28 12:11:49;;;;;;;;;;;4.90;99.90;;;;;;5012639;28;19929;-73
2022/11/28 12:14:34;;;;;;;;;;;4.90;99.90;;;;;;5018590;28;20311;-73
2022/11/28 12:17:11;;;;;;;;;;;5.00;99.90;;;;;;5009634;28;19936;-72
2022/11/28 12:20:03;;;;;;;;;;;5.00;99.90;;;;;;5027830;28;20016;-74
2022/11/28 12:22:48;;;;;;;;;;;5.00;99.90;;;;;;5014760;28;19929;-72
2022/11/28 12:25:41;;;;;;;;;;;5.10;99.90;;;;;;5030855;28;20367;-73
2022/11/28 12:28:19;;;;;;;;;;;5.10;99.90;;;;;;5025499;28;19933;-75
2022/11/28 12:30:56;;;;;;;;;;;5.10;99.90;;;;;;5037594;28;20721;-74
2022/11/28 12:33:22;;;;;;;;;;;5.10;99.90;;;;;;5019044;28;20387;-74
2022/11/28 12:36:06;;;;;;;;;;;5.20;99.90;;;;;;5035254;28;19925;-73
2022/11/28 12:38:56;;;;;;;;;;;5.20;99.90;;;;;;5038893;28;19929;-73
2022/11/28 12:41:40;;;;;;;;;;;5.30;99.90;;;;;;5016293;28;19925;-74
2022/11/28 12:44:11;;;;;;;;;;;5.30;99.90;;;;;;5043336;28;19925;-75
2022/11/28 12:46:46;;;;;;;;;;;5.30;99.90;;;;;;5038183;28;20399;-73
2022/11/28 12:49:33;;;;;;;;;;;5.30;99.90;;;;;;5032055;28;20419;-74
2022/11/28 12:52:08;;;;;;;;;;;5.40;99.90;;;;;;5034700;28;19929;-73
2022/11/28 12:54:49;;;;;;;;;;;5.40;99.90;;;;;;5033465;28;19925;-72
2022/11/28 12:57:37;;;;;;;;;;;5.50;99.90;;;;;;5028546;28;19929;-76
2022/11/28 13:00:13;;;;;;;;;;;5.50;99.90;;;;;;5013888;28;19925;-75
2022/11/28 13:02:48;;;;;;;;;;;5.50;99.90;;;;;;5035189;28;19933;-74
2022/11/28 13:05:30;;;;;;;;;;;5.50;99.90;;;;;;5029503;28;19925;-72
2022/11/28 13:08:14;;;;;;;;;;;5.50;99.90;;;;;;5027868;28;20449;-74
2022/11/28 13:11:24;;;;;;;;;;;5.50;99.90;;;;;;5018048;28;19929;-75
2022/11/28 13:13:56;;;;;;;;;;;5.60;99.90;;;;;;4935471;28;20104;-74
2022/11/28 13:16:30;;;;;;;;;;;5.60;99.90;;;;;;4939993;28;19927;-74
2022/11/28 13:19:14;;;;;;;;;;;5.70;99.90;;;;;;4978473;28;19978;-73
2022/11/28 13:21:51;;;;;;;;;;;5.70;99.90;;;;;;5035523;28;19929;-73
2022/11/28 13:24:41;;;;;;;;;;;5.70;99.90;;;;;;5037874;28;19928;-74
2022/11/28 13:27:31;;;;;;;;;;;5.70;99.90;;;;;;5031388;28;19933;-74
2022/11/28 13:30:02;;;;;;;;;;;5.70;99.90;;;;;;5016429;28;19971;-75
2022/11/28 13:32:53;;;;;;;;;;;5.70;99.90;;;;;;5031578;28;19975;-75
2022/11/28 13:35:26;;;;;;;;;;;5.70;99.90;;;;;;5003987;28;19932;-74
2022/11/28 13:38:19;;;;;;;;;;;5.70;99.90;;;;;;5035007;28;19929;-73
2022/11/28 13:40:58;;;;;;;;;;;5.80;99.90;;;;;;5023663;28;19987;-73
2022/11/28 13:43:29;;;;;;;;;;;5.80;99.90;;;;;;5031641;28;19967;-76
2022/11/28 13:46:01;;;;;;;;;;;5.80;99.90;;;;;;5031703;28;19934;-74
2022/11/28 13:48:32;;;;;;;;;;;5.80;99.90;;;;;;5035133;28;19925;-75
2022/11/28 13:51:13;;;;;;;;;;;5.80;99.90;;;;;;5012572;28;19941;-75
2022/11/28 13:53:46;;;;;;;;;;;5.80;99.90;;;;;;5034016;28;19940;-73
2022/11/28 13:56:17;;;;;;;;;;;5.80;99.90;;;;;;5032514;28;19929;-73
2022/11/28 13:58:49;;;;;;;;;;;5.80;99.90;;;;;;5021626;28;20019;-75
2022/11/28 14:01:29;;;;;;;;;;;5.80;99.90;;;;;;5025855;28;20406;-73
2022/11/28 14:03:56;;;;;;;;;;;5.70;99.90;;;;;;5026693;28;19928;-74
2022/11/28 14:06:29;;;;;;;;;;;5.70;99.90;;;;;;5034939;28;19925;-73
2022/11/28 14:09:03;;;;;;;;;;;5.70;99.90;;;;;;5035493;28;19925;-73
2022/11/28 14:11:45;;;;;;;;;;;5.70;99.90;;;;;;5040033;28;19925;-73
2022/11/28 14:14:35;;;;;;;;;;;5.70;99.90;;;;;;5017485;28;19935;-72
2022/11/28 14:17:23;;;;;;;;;;;5.70;99.90;;;;;;5031694;28;19933;-73
2022/11/28 14:19:59;;;;;;;;;;;5.70;99.90;;;;;;5016209;28;19928;-74
2022/11/28 14:22:39;;;;;;;;;;;5.70;99.90;;;;;;5028125;28;19929;-73
2022/11/28 14:25:09;;;;;;;;;;;5.70;99.90;;;;;;5020613;28;19928;-75
2022/11/28 14:27:47;;;;;;;;;;;5.70;99.90;;;;;;5039047;28;19925;-74
2022/11/28 14:30:22;;;;;;;;;;;5.70;99.90;;;;;;5040543;28;20354;-75
2022/11/28 14:32:53;;;;;;;;;;;5.70;99.90;;;;;;5033322;28;19932;-75
2022/11/28 14:35:49;;;;;;;;;;;5.60;99.90;;;;;;5023090;28;20383;-75
2022/11/28 14:38:30;;;;;;;;;;;5.50;99.90;;;;;;5005495;28;20426;-73
2022/11/28 14:41:02;;;;;;;;;;;5.40;99.90;;;;;;5018136;28;20335;-73
2022/11/28 14:43:33;;;;;;;;;;;5.40;99.90;;;;;;5014857;28;19953;-74
2022/11/28 14:46:15;;;;;;;;;;;5.30;99.90;;;;;;5014277;28;20346;-75
2022/11/28 14:48:56;;;;;;;;;;;5.20;99.90;;;;;;5029845;28;20016;-76
2022/11/28 14:51:41;;;;;;;;;;;5.20;99.90;;;;;;5017253;28;19925;-73
2022/11/28 14:54:28;;;;;;;;;;;5.20;99.90;;;;;;5028801;28;19929;-74
2022/11/28 14:57:01;;;;;;;;;;;5.20;99.90;;;;;;5023981;28;19926;-73
2022/11/28 14:59:31;;;;;;;;;;;5.20;99.90;;;;;;5009088;28;19936;-75
2022/11/28 15:02:09;;;;;;;;;;;5.10;99.90;;;;;;5036641;28;19928;-74
2022/11/28 15:04:54;;;;;;;;;;;5.20;99.90;;;;;;5015099;28;19933;-72
2022/11/28 15:07:29;;;;;;;;;;;5.10;99.90;;;;;;5011317;28;19925;-74
2022/11/28 15:10:21;;;;;;;;;;;5.10;99.90;;;;;;5034554;28;20358;-74
2022/11/28 15:12:53;;;;;;;;;;;5.10;99.90;;;;;;4996750;28;19926;-75
2022/11/28 15:15:24;;;;;;;;;;;5.10;99.90;;;;;;5021135;28;19924;-75
2022/11/28 15:17:52;;;;;;;;;;;5.00;99.90;;;;;;5020483;28;19933;-75